M/V Grande Caribe — WCX4495 — position and weather

sailwx.info

Track history (hours):
 
Tides and Currents Weather Stations Pressure Air Temp Water Temp Dewpoint Dewpoint Depression Visibility Wind Speed Wind Dir Waves Ship Positions

M/V Grande Caribe

Owner: Blount Small Ship Adventures, WARREN, RI. More information available from US FCC via Universal Licensing System and Coast Guard Vessel Documentation Center.

Last reported at 2017-Oct-30 06:36 UTC. Time now 2017-Nov-20 19:28 UTC.
Position N 41°43' W 071°17'.
Warning: this ship's position is 21 days out of date.

Length 55 m; draft 2.1 m.

Type: Ship. MMSI: 369023000.

Date/timePositionNaut miles runAvg speedWind from/ knotsBaromVisibWave heightAir tempDewpointWater temp
2017-Oct-30 06:36N 41°43' W 071°17'1 0.0
2017-Oct-28 14:53N 41°42' W 071°18'56 7.2
2017-Oct-28 07:11N 41°12' W 072°20'2 8.5
2017-Oct-28 07:00N 41°12' W 072°22'4 8.5
2017-Oct-28 06:30N 41°10' W 072°28'4 8.8
2017-Oct-28 06:00N 41°09' W 072°33'60 9.5
2017-Oct-27 23:43N 40°48' W 073°47'2 8.8
2017-Oct-27 23:30N 40°48' W 073°50'4 7.7
2017-Oct-27 22:58N 40°47' W 073°55'3 5.9
2017-Oct-27 22:30N 40°45' W 073°58'3 6.4
2017-Oct-27 22:00N 40°42' W 073°60'3 5.1
2017-Oct-27 21:31N 40°45' W 074°01'0 0.3
2017-Oct-27 21:00N 40°45' W 074°01'0 0.0
2017-Oct-27 20:30N 40°45' W 074°01'0 0.0
2017-Oct-27 20:00N 40°45' W 074°01'0 0.0
2017-Oct-27 19:30N 40°45' W 074°01'0 0.0
2017-Oct-27 19:00N 40°45' W 074°01'0 0.0
2017-Oct-27 18:30N 40°45' W 074°01'0 0.0
2017-Oct-27 18:00N 40°45' W 074°01'0 0.0
2017-Oct-27 17:30N 40°45' W 074°01'0 0.0
2017-Oct-27 17:00N 40°45' W 074°01'0 0.0
2017-Oct-27 16:30N 40°45' W 074°01'0 0.0
2017-Oct-27 16:00N 40°45' W 074°01'0 0.0
2017-Oct-27 15:30N 40°45' W 074°01'0 0.0
2017-Oct-27 15:00N 40°45' W 074°01'0 0.1
2017-Oct-27 14:30N 40°45' W 074°01'0 0.1
2017-Oct-27 14:00N 40°45' W 074°01'0 0.0
2017-Oct-27 13:30N 40°45' W 074°01'0 0.0
2017-Oct-27 13:00N 40°45' W 074°01'0 0.0
2017-Oct-27 12:30N 40°45' W 074°01'0 0.0
2017-Oct-27 12:00N 40°45' W 074°01'0 0.0
2017-Oct-27 11:30N 40°45' W 074°01'0 0.0
2017-Oct-27 11:00N 40°45' W 074°01'0 0.0
2017-Oct-27 10:30N 40°45' W 074°01'0 0.0
2017-Oct-27 10:00N 40°45' W 074°01'0 0.0
2017-Oct-27 09:30N 40°45' W 074°01'0 0.0
2017-Oct-27 08:59N 40°45' W 074°01'0 0.0
2017-Oct-27 08:30N 40°45' W 074°01'0 0.0
2017-Oct-27 08:00N 40°45' W 074°01'0 0.0
2017-Oct-27 07:29N 40°45' W 074°01'0 0.0
2017-Oct-27 07:00N 40°45' W 074°01'0 0.0
2017-Oct-27 06:30N 40°45' W 074°01'0 0.0
2017-Oct-27 06:00N 40°45' W 074°01'0 0.0
2017-Oct-27 05:30N 40°45' W 074°01'0 0.0
2017-Oct-27 05:00N 40°45' W 074°01'0 0.0
2017-Oct-27 04:30N 40°45' W 074°01'0 0.0
2017-Oct-27 04:00N 40°45' W 074°01'0 0.0
2017-Oct-27 03:30N 40°45' W 074°01'0 0.0
2017-Oct-27 03:00N 40°45' W 074°01'0 0.0
2017-Oct-27 02:30N 40°45' W 074°01'0 0.0
2017-Oct-27 02:00N 40°45' W 074°01'0 0.0
2017-Oct-27 01:30N 40°45' W 074°01'0 0.0
2017-Oct-27 01:00N 40°45' W 074°01'0 0.0
2017-Oct-27 00:30N 40°45' W 074°01'0 0.0
2017-Oct-27 00:00N 40°45' W 074°01'0 0.0
2017-Oct-26 23:30N 40°45' W 074°01'0 0.0
2017-Oct-26 23:00N 40°45' W 074°01'0 0.0
2017-Oct-26 22:30N 40°45' W 074°01'0 0.0
2017-Oct-26 22:00N 40°45' W 074°01'0 0.0
2017-Oct-26 21:30N 40°45' W 074°01'0 0.0
2017-Oct-26 21:00N 40°45' W 074°01'0 0.0
2017-Oct-26 20:30N 40°45' W 074°01'0 0.0
2017-Oct-26 20:00N 40°45' W 074°01'0 0.0
2017-Oct-26 19:30N 40°45' W 074°01'0 0.0
2017-Oct-26 19:00N 40°45' W 074°01'0 0.0
2017-Oct-26 18:30N 40°45' W 074°01'0 0.0
2017-Oct-26 18:00N 40°45' W 074°01'0 0.0
2017-Oct-26 17:30N 40°45' W 074°01'0 0.0
2017-Oct-26 17:00N 40°45' W 074°01'0 0.0
2017-Oct-26 16:30N 40°45' W 074°01'0 0.0
2017-Oct-26 16:00N 40°45' W 074°01'0 0.0
2017-Oct-26 15:30N 40°45' W 074°01'0 0.0
2017-Oct-26 14:58N 40°45' W 074°01'0 0.0
2017-Oct-26 14:29N 40°45' W 074°01'0 0.0
2017-Oct-26 14:00N 40°45' W 074°01'0 0.0
2017-Oct-26 13:30N 40°45' W 074°01'0 0.0
2017-Oct-26 12:59N 40°45' W 074°01'0 0.0
2017-Oct-26 12:30N 40°45' W 074°01'0 0.0
2017-Oct-26 12:00N 40°45' W 074°01'0 0.0
2017-Oct-26 11:30N 40°45' W 074°01'0 0.0
2017-Oct-26 10:59N 40°45' W 074°01'0 0.0
2017-Oct-26 10:30N 40°45' W 074°01'0 0.0
2017-Oct-26 10:00N 40°45' W 074°01'0 0.0
2017-Oct-26 09:30N 40°45' W 074°01'0 0.0
2017-Oct-26 09:00N 40°45' W 074°01'0 0.0
2017-Oct-26 08:30N 40°45' W 074°01'0 0.0
2017-Oct-26 08:00N 40°45' W 074°01'0 0.0
2017-Oct-26 07:30N 40°45' W 074°01'0 0.0
2017-Oct-26 07:00N 40°45' W 074°01'0 0.0
2017-Oct-26 06:30N 40°45' W 074°01'0 0.0
2017-Oct-26 05:59N 40°45' W 074°01'0 0.0
2017-Oct-26 05:30N 40°45' W 074°01'0 0.0
2017-Oct-26 05:00N 40°45' W 074°01'0 0.0
2017-Oct-26 04:30N 40°45' W 074°01'0 0.0
2017-Oct-26 04:00N 40°45' W 074°01'0 0.0
2017-Oct-26 03:30N 40°45' W 074°01'0 0.0
2017-Oct-26 03:00N 40°45' W 074°01'0 0.0
2017-Oct-26 02:30N 40°45' W 074°01'0 0.0
2017-Oct-26 02:00N 40°45' W 074°01'0 0.0
2017-Oct-26 01:30N 40°45' W 074°01'0 0.0
2017-Oct-26 01:00N 40°45' W 074°01'0 0.0
2017-Oct-26 00:30N 40°45' W 074°01'0 0.0
2017-Oct-26 00:00N 40°45' W 074°01'0 0.0
2017-Oct-25 23:30N 40°45' W 074°01'0 0.0
2017-Oct-25 23:00N 40°45' W 074°01'0 0.0
2017-Oct-25 22:30N 40°45' W 074°01'0 0.0
2017-Oct-25 22:00N 40°45' W 074°01'1 1.4
2017-Oct-25 21:30N 40°44' W 074°01'3 6.1
2017-Oct-25 21:00N 40°41' W 074°02'4 7.4
2017-Oct-25 20:30N 40°45' W 074°01'5 9.3
2017-Oct-25 20:00N 40°49' W 073°58'5 9.3
2017-Oct-25 19:30N 40°53' W 073°56'  
Track history (hours):
 
Tides and Currents Weather Stations Pressure Air Temp Water Temp Dewpoint Dewpoint Depression Visibility Wind Speed Wind Dir Waves Ship Positions

M/V Grande Caribe

Owner: Blount Small Ship Adventures, WARREN, RI. More information available from US FCC via Universal Licensing System and Coast Guard Vessel Documentation Center.

Last reported at 2017-Oct-30 06:36 UTC. Time now 2017-Nov-20 19:28 UTC.
Position N 41°43' W 071°17'.
Warning: this ship's position is 21 days out of date.

Length 55 m; draft 2.1 m.

Type: Ship. MMSI: 369023000.

Date/timePositionNaut miles runAvg speedWind from/ knotsBaromVisibWave heightAir tempDewpointWater temp
2017-Oct-30 06:36N 41°43' W 071°17'1 0.0
2017-Oct-28 14:53N 41°42' W 071°18'56 7.2
2017-Oct-28 07:11N 41°12' W 072°20'2 8.5
2017-Oct-28 07:00N 41°12' W 072°22'4 8.5
2017-Oct-28 06:30N 41°10' W 072°28'4 8.8
2017-Oct-28 06:00N 41°09' W 072°33'60 9.5
2017-Oct-27 23:43N 40°48' W 073°47'2 8.8
2017-Oct-27 23:30N 40°48' W 073°50'4 7.7
2017-Oct-27 22:58N 40°47' W 073°55'3 5.9
2017-Oct-27 22:30N 40°45' W 073°58'3 6.4
2017-Oct-27 22:00N 40°42' W 073°60'3 5.1
2017-Oct-27 21:31N 40°45' W 074°01'0 0.3
2017-Oct-27 21:00N 40°45' W 074°01'0 0.0
2017-Oct-27 20:30N 40°45' W 074°01'0 0.0
2017-Oct-27 20:00N 40°45' W 074°01'0 0.0
2017-Oct-27 19:30N 40°45' W 074°01'0 0.0
2017-Oct-27 19:00N 40°45' W 074°01'0 0.0
2017-Oct-27 18:30N 40°45' W 074°01'0 0.0
2017-Oct-27 18:00N 40°45' W 074°01'0 0.0
2017-Oct-27 17:30N 40°45' W 074°01'0 0.0
2017-Oct-27 17:00N 40°45' W 074°01'0 0.0
2017-Oct-27 16:30N 40°45' W 074°01'0 0.0
2017-Oct-27 16:00N 40°45' W 074°01'0 0.0
2017-Oct-27 15:30N 40°45' W 074°01'0 0.0
2017-Oct-27 15:00N 40°45' W 074°01'0 0.1
2017-Oct-27 14:30N 40°45' W 074°01'0 0.1
2017-Oct-27 14:00N 40°45' W 074°01'0 0.0
2017-Oct-27 13:30N 40°45' W 074°01'0 0.0
2017-Oct-27 13:00N 40°45' W 074°01'0 0.0
2017-Oct-27 12:30N 40°45' W 074°01'0 0.0
2017-Oct-27 12:00N 40°45' W 074°01'0 0.0
2017-Oct-27 11:30N 40°45' W 074°01'0 0.0
2017-Oct-27 11:00N 40°45' W 074°01'0 0.0
2017-Oct-27 10:30N 40°45' W 074°01'0 0.0
2017-Oct-27 10:00N 40°45' W 074°01'0 0.0
2017-Oct-27 09:30N 40°45' W 074°01'0 0.0
2017-Oct-27 08:59N 40°45' W 074°01'0 0.0
2017-Oct-27 08:30N 40°45' W 074°01'0 0.0
2017-Oct-27 08:00N 40°45' W 074°01'0 0.0
2017-Oct-27 07:29N 40°45' W 074°01'0 0.0
2017-Oct-27 07:00N 40°45' W 074°01'0 0.0
2017-Oct-27 06:30N 40°45' W 074°01'0 0.0
2017-Oct-27 06:00N 40°45' W 074°01'0 0.0
2017-Oct-27 05:30N 40°45' W 074°01'0 0.0
2017-Oct-27 05:00N 40°45' W 074°01'0 0.0
2017-Oct-27 04:30N 40°45' W 074°01'0 0.0
2017-Oct-27 04:00N 40°45' W 074°01'0 0.0
2017-Oct-27 03:30N 40°45' W 074°01'0 0.0
2017-Oct-27 03:00N 40°45' W 074°01'0 0.0
2017-Oct-27 02:30N 40°45' W 074°01'0 0.0
2017-Oct-27 02:00N 40°45' W 074°01'0 0.0
2017-Oct-27 01:30N 40°45' W 074°01'0 0.0
2017-Oct-27 01:00N 40°45' W 074°01'0 0.0
2017-Oct-27 00:30N 40°45' W 074°01'0 0.0
2017-Oct-27 00:00N 40°45' W 074°01'0 0.0
2017-Oct-26 23:30N 40°45' W 074°01'0 0.0
2017-Oct-26 23:00N 40°45' W 074°01'0 0.0
2017-Oct-26 22:30N 40°45' W 074°01'0 0.0
2017-Oct-26 22:00N 40°45' W 074°01'0 0.0
2017-Oct-26 21:30N 40°45' W 074°01'0 0.0
2017-Oct-26 21:00N 40°45' W 074°01'0 0.0
2017-Oct-26 20:30N 40°45' W 074°01'0 0.0
2017-Oct-26 20:00N 40°45' W 074°01'0 0.0
2017-Oct-26 19:30N 40°45' W 074°01'0 0.0
2017-Oct-26 19:00N 40°45' W 074°01'0 0.0
2017-Oct-26 18:30N 40°45' W 074°01'0 0.0
2017-Oct-26 18:00N 40°45' W 074°01'0 0.0
2017-Oct-26 17:30N 40°45' W 074°01'0 0.0
2017-Oct-26 17:00N 40°45' W 074°01'0 0.0
2017-Oct-26 16:30N 40°45' W 074°01'0 0.0
2017-Oct-26 16:00N 40°45' W 074°01'0 0.0
2017-Oct-26 15:30N 40°45' W 074°01'0 0.0
2017-Oct-26 14:58N 40°45' W 074°01'0 0.0
2017-Oct-26 14:29N 40°45' W 074°01'0 0.0
2017-Oct-26 14:00N 40°45' W 074°01'0 0.0
2017-Oct-26 13:30N 40°45' W 074°01'0 0.0
2017-Oct-26 12:59N 40°45' W 074°01'0 0.0
2017-Oct-26 12:30N 40°45' W 074°01'0 0.0
2017-Oct-26 12:00N 40°45' W 074°01'0 0.0
2017-Oct-26 11:30N 40°45' W 074°01'0 0.0
2017-Oct-26 10:59N 40°45' W 074°01'0 0.0
2017-Oct-26 10:30N 40°45' W 074°01'0 0.0
2017-Oct-26 10:00N 40°45' W 074°01'0 0.0
2017-Oct-26 09:30N 40°45' W 074°01'0 0.0
2017-Oct-26 09:00N 40°45' W 074°01'0 0.0
2017-Oct-26 08:30N 40°45' W 074°01'0 0.0
2017-Oct-26 08:00N 40°45' W 074°01'0 0.0
2017-Oct-26 07:30N 40°45' W 074°01'0 0.0
2017-Oct-26 07:00N 40°45' W 074°01'0 0.0
2017-Oct-26 06:30N 40°45' W 074°01'0 0.0
2017-Oct-26 05:59N 40°45' W 074°01'0 0.0
2017-Oct-26 05:30N 40°45' W 074°01'0 0.0
2017-Oct-26 05:00N 40°45' W 074°01'0 0.0
2017-Oct-26 04:30N 40°45' W 074°01'0 0.0
2017-Oct-26 04:00N 40°45' W 074°01'0 0.0
2017-Oct-26 03:30N 40°45' W 074°01'0 0.0
2017-Oct-26 03:00N 40°45' W 074°01'0 0.0
2017-Oct-26 02:30N 40°45' W 074°01'0 0.0
2017-Oct-26 02:00N 40°45' W 074°01'0 0.0
2017-Oct-26 01:30N 40°45' W 074°01'0 0.0
2017-Oct-26 01:00N 40°45' W 074°01'0 0.0
2017-Oct-26 00:30N 40°45' W 074°01'0 0.0
2017-Oct-26 00:00N 40°45' W 074°01'0 0.0
2017-Oct-25 23:30N 40°45' W 074°01'0 0.0
2017-Oct-25 23:00N 40°45' W 074°01'0 0.0
2017-Oct-25 22:30N 40°45' W 074°01'0 0.0
2017-Oct-25 22:00N 40°45' W 074°01'1 1.4
2017-Oct-25 21:30N 40°44' W 074°01'3 6.1
2017-Oct-25 21:00N 40°41' W 074°02'4 7.4
2017-Oct-25 20:30N 40°45' W 074°01'5 9.3
2017-Oct-25 20:00N 40°49' W 073°58'5 9.3
2017-Oct-25 19:30N 40°53' W 073°56'  

Dump ship's entire track history